sensor_id;sensor_type;location;lat;lon;timestamp;pressure;altitude;pressure_sealevel;temperature;humidity
32452;BME280;45528;52.102;5.242;2022-07-03T00:00:26;101419.0;;;22.55;55.44
32452;BME280;45528;52.102;5.242;2022-07-03T00:02:14;101423.0;;;22.47;55.57
32452;BME280;45528;52.102;5.242;2022-07-03T00:04:01;101420.0;;;22.4;55.66
32452;BME280;45528;52.102;5.242;2022-07-03T00:07:36;101416.0;;;22.34;55.91
32452;BME280;45528;52.102;5.242;2022-07-03T00:09:24;101415.0;;;22.35;55.0
32452;BME280;45528;52.102;5.242;2022-07-03T00:11:11;101411.0;;;22.27;55.82
32452;BME280;45528;52.102;5.242;2022-07-03T00:12:58;101416.0;;;22.25;55.57
32452;BME280;45528;52.102;5.242;2022-07-03T00:14:45;101421.0;;;22.29;55.21
32452;BME280;45528;52.102;5.242;2022-07-03T00:16:32;101420.0;;;22.34;55.63
32452;BME280;45528;52.102;5.242;2022-07-03T00:20:08;101419.0;;;22.27;55.72
32452;BME280;45528;52.102;5.242;2022-07-03T00:21:56;101411.0;;;22.27;55.78
32452;BME280;45528;52.102;5.242;2022-07-03T00:23:52;101411.0;;;22.28;55.75
32452;BME280;45528;52.102;5.242;2022-07-03T00:25:41;101413.0;;;22.16;55.95
32452;BME280;45528;52.102;5.242;2022-07-03T00:27:32;101414.0;;;22.13;56.05
32452;BME280;45528;52.102;5.242;2022-07-03T00:29:21;101415.0;;;22.08;55.7
32452;BME280;45528;52.102;5.242;2022-07-03T00:31:11;101418.0;;;22.13;55.31
32452;BME280;45528;52.102;5.242;2022-07-03T00:34:48;101420.0;;;22.09;55.78
32452;BME280;45528;52.102;5.242;2022-07-03T00:36:37;101419.0;;;22.05;55.72
32452;BME280;45528;52.102;5.242;2022-07-03T00:38:24;101418.0;;;22.03;55.91
32452;BME280;45528;52.102;5.242;2022-07-03T00:40:12;101414.0;;;21.93;56.01
32452;BME280;45528;52.102;5.242;2022-07-03T00:42:01;101413.0;;;21.86;56.22
32452;BME280;45528;52.102;5.242;2022-07-03T00:43:49;101413.0;;;21.82;56.11
32452;BME280;45528;52.102;5.242;2022-07-03T00:47:35;101414.0;;;21.79;55.98
32452;BME280;45528;52.102;5.242;2022-07-03T00:49:23;101413.0;;;21.79;55.83
32452;BME280;45528;52.102;5.242;2022-07-03T00:51:14;101416.0;;;21.72;56.1
32452;BME280;45528;52.102;5.242;2022-07-03T00:53:04;101414.0;;;21.65;56.38
32452;BME280;45528;52.102;5.242;2022-07-03T00:54:56;101413.0;;;21.59;56.52
32452;BME280;45528;52.102;5.242;2022-07-03T00:56:49;101412.0;;;21.53;56.7
32452;BME280;45528;52.102;5.242;2022-07-03T00:58:38;101411.0;;;21.54;56.93
32452;BME280;45528;52.102;5.242;2022-07-03T01:00:26;101415.0;;;21.53;57.03
32452;BME280;45528;52.102;5.242;2022-07-03T01:04:21;101416.0;;;21.54;56.71
32452;BME280;45528;52.102;5.242;2022-07-03T01:06:31;101411.0;;;21.58;57.34
32452;BME280;45528;52.102;5.242;2022-07-03T01:08:29;101409.0;;;21.55;56.76
32452;BME280;45528;52.102;5.242;2022-07-03T01:10:32;101407.0;;;21.55;57.06
32452;BME280;45528;52.102;5.242;2022-07-03T01:12:35;101411.0;;;21.45;57.07
32452;BME280;45528;52.102;5.242;2022-07-03T01:14:43;101409.0;;;21.41;57.29
32452;BME280;45528;52.102;5.242;2022-07-03T01:16:38;101408.0;;;21.38;57.28
32452;BME280;45528;52.102;5.242;2022-07-03T01:18:34;101413.0;;;21.31;57.6
32452;BME280;45528;52.102;5.242;2022-07-03T01:20:27;101412.0;;;21.28;57.73
32452;BME280;45528;52.102;5.242;2022-07-03T01:22:32;101410.0;;;21.25;57.88
32452;BME280;45528;52.102;5.242;2022-07-03T01:24:37;101412.0;;;21.26;58.01
32452;BME280;45528;52.102;5.242;2022-07-03T01:26:50;101409.0;;;21.2;58.16
32452;BME280;45528;52.102;5.242;2022-07-03T01:28:44;101406.0;;;21.19;58.26
32452;BME280;45528;52.102;5.242;2022-07-03T01:30:33;101403.0;;;21.18;58.22
32452;BME280;45528;52.102;5.242;2022-07-03T01:32:23;101399.0;;;21.17;58.41
32452;BME280;45528;52.102;5.242;2022-07-03T01:34:19;101399.0;;;21.16;58.3
32452;BME280;45528;52.102;5.242;2022-07-03T01:36:08;101396.0;;;21.1;58.46
32452;BME280;45528;52.102;5.242;2022-07-03T01:39:49;101389.0;;;21.12;58.58
32452;BME280;45528;52.102;5.242;2022-07-03T01:41:39;101393.0;;;21.16;58.53
32452;BME280;45528;52.102;5.242;2022-07-03T01:43:29;101387.0;;;21.14;58.65
32452;BME280;45528;52.102;5.242;2022-07-03T01:45:18;101384.0;;;21.12;58.58
32452;BME280;45528;52.102;5.242;2022-07-03T01:47:06;101386.0;;;21.07;58.63
32452;BME280;45528;52.102;5.242;2022-07-03T01:48:54;101383.0;;;21.03;58.81
32452;BME280;45528;52.102;5.242;2022-07-03T01:50:44;101381.0;;;20.99;58.9
32452;BME280;45528;52.102;5.242;2022-07-03T01:54:24;101385.0;;;20.98;59.1
32452;BME280;45528;52.102;5.242;2022-07-03T01:56:12;101382.0;;;20.99;59.07
32452;BME280;45528;52.102;5.242;2022-07-03T01:58:00;101380.0;;;20.98;58.98
32452;BME280;45528;52.102;5.242;2022-07-03T01:59:47;101382.0;;;20.94;59.22
32452;BME280;45528;52.102;5.242;2022-07-03T02:01:41;101384.0;;;20.93;59.26
32452;BME280;45528;52.102;5.242;2022-07-03T02:03:33;101380.0;;;20.91;59.37
32452;BME280;45528;52.102;5.242;2022-07-03T02:05:29;101380.0;;;20.88;59.6
32452;BME280;45528;52.102;5.242;2022-07-03T02:09:17;101380.0;;;20.88;59.63
32452;BME280;45528;52.102;5.242;2022-07-03T02:11:13;101375.0;;;20.85;59.59
32452;BME280;45528;52.102;5.242;2022-07-03T02:13:07;101376.0;;;20.88;59.65
32452;BME280;45528;52.102;5.242;2022-07-03T02:15:03;101373.0;;;20.85;59.57
32452;BME280;45528;52.102;5.242;2022-07-03T02:17:00;101369.0;;;20.84;59.61
32452;BME280;45528;52.102;5.242;2022-07-03T02:18:57;101363.0;;;20.86;59.74
32452;BME280;45528;52.102;5.242;2022-07-03T02:20:56;101370.0;;;20.82;59.77
32452;BME280;45528;52.102;5.242;2022-07-03T02:22:56;101373.0;;;20.79;59.87
32452;BME280;45528;52.102;5.242;2022-07-03T02:24:46;101369.0;;;20.76;59.85
32452;BME280;45528;52.102;5.242;2022-07-03T02:26:37;101373.0;;;20.69;60.12
32452;BME280;45528;52.102;5.242;2022-07-03T02:28:32;101370.0;;;20.7;60.22
32452;BME280;45528;52.102;5.242;2022-07-03T02:30:42;101369.0;;;20.71;60.33
32452;BME280;45528;52.102;5.242;2022-07-03T02:32:32;101367.0;;;20.63;60.63
32452;BME280;45528;52.102;5.242;2022-07-03T02:36:11;101373.0;;;20.7;60.61
32452;BME280;45528;52.102;5.242;2022-07-03T02:38:04;101374.0;;;20.72;60.74
32452;BME280;45528;52.102;5.242;2022-07-03T02:39:59;101382.0;;;20.74;60.46
32452;BME280;45528;52.102;5.242;2022-07-03T02:41:55;101377.0;;;20.82;60.39
32452;BME280;45528;52.102;5.242;2022-07-03T02:43:50;101378.0;;;20.81;60.16
32452;BME280;45528;52.102;5.242;2022-07-03T02:45:48;101376.0;;;20.86;60.13
32452;BME280;45528;52.102;5.242;2022-07-03T02:47:43;101373.0;;;20.87;60.11
32452;BME280;45528;52.102;5.242;2022-07-03T02:49:41;101373.0;;;20.88;60.26
32452;BME280;45528;52.102;5.242;2022-07-03T02:51:37;101380.0;;;20.88;60.35
32452;BME280;45528;52.102;5.242;2022-07-03T02:53:33;101381.0;;;20.89;60.44
32452;BME280;45528;52.102;5.242;2022-07-03T02:57:37;101380.0;;;20.92;60.57
32452;BME280;45528;52.102;5.242;2022-07-03T02:59:37;101380.0;;;20.94;60.28
32452;BME280;45528;52.102;5.242;2022-07-03T03:01:38;101381.0;;;20.95;60.34
32452;BME280;45528;52.102;5.242;2022-07-03T03:05:26;101380.0;;;21.01;60.23
32452;BME280;45528;52.102;5.242;2022-07-03T03:07:16;101377.0;;;21.05;60.37
32452;BME280;45528;52.102;5.242;2022-07-03T03:09:14;101380.0;;;21.1;60.16
32452;BME280;45528;52.102;5.242;2022-07-03T03:11:07;101372.0;;;21.1;59.98
32452;BME280;45528;52.102;5.242;2022-07-03T03:13:02;101371.0;;;21.07;60.18
32452;BME280;45528;52.102;5.242;2022-07-03T03:15:00;101368.0;;;21.09;60.0
32452;BME280;45528;52.102;5.242;2022-07-03T03:16:52;101372.0;;;21.15;59.64
32452;BME280;45528;52.102;5.242;2022-07-03T03:18:41;101368.0;;;21.21;59.52
32452;BME280;45528;52.102;5.242;2022-07-03T03:22:27;101361.0;;;21.17;59.64
32452;BME280;45528;52.102;5.242;2022-07-03T03:24:25;101359.0;;;21.13;59.46
32452;BME280;45528;52.102;5.242;2022-07-03T03:26:17;101363.0;;;21.12;59.44
32452;BME280;45528;52.102;5.242;2022-07-03T03:28:05;101362.0;;;21.07;60.06
32452;BME280;45528;52.102;5.242;2022-07-03T03:29:52;101360.0;;;21.09;59.76
32452;BME280;45528;52.102;5.242;2022-07-03T03:31:39;101360.0;;;21.1;59.77
32452;BME280;45528;52.102;5.242;2022-07-03T03:33:26;101368.0;;;21.14;59.32
32452;BME280;45528;52.102;5.242;2022-07-03T03:37:02;101373.0;;;21.16;59.36
32452;BME280;45528;52.102;5.242;2022-07-03T03:38:49;101372.0;;;21.15;59.37
32452;BME280;45528;52.102;5.242;2022-07-03T03:40:35;101374.0;;;21.2;59.53
32452;BME280;45528;52.102;5.242;2022-07-03T03:42:22;101374.0;;;21.18;59.51
32452;BME280;45528;52.102;5.242;2022-07-03T03:44:09;101375.0;;;21.15;59.43
32452;BME280;45528;52.102;5.242;2022-07-03T03:45:57;101380.0;;;21.11;59.47
32452;BME280;45528;52.102;5.242;2022-07-03T03:49:31;101384.0;;;21.09;59.76
32452;BME280;45528;52.102;5.242;2022-07-03T03:51:18;101380.0;;;21.09;59.92
32452;BME280;45528;52.102;5.242;2022-07-03T03:53:06;101373.0;;;21.05;59.75
32452;BME280;45528;52.102;5.242;2022-07-03T03:54:52;101375.0;;;21.04;59.63
32452;BME280;45528;52.102;5.242;2022-07-03T03:56:40;101373.0;;;21.05;59.48
32452;BME280;45528;52.102;5.242;2022-07-03T03:58:28;101376.0;;;21.05;59.49
32452;BME280;45528;52.102;5.242;2022-07-03T04:02:03;101373.0;;;21.07;59.47
32452;BME280;45528;52.102;5.242;2022-07-03T04:03:50;101373.0;;;21.06;59.42
32452;BME280;45528;52.102;5.242;2022-07-03T04:05:37;101374.0;;;21.08;59.72
32452;BME280;45528;52.102;5.242;2022-07-03T04:07:24;101378.0;;;21.11;60.0
32452;BME280;45528;52.102;5.242;2022-07-03T04:09:11;101376.0;;;21.14;60.17
32452;BME280;45528;52.102;5.242;2022-07-03T04:10:59;101375.0;;;21.17;59.56
32452;BME280;45528;52.102;5.242;2022-07-03T04:14:34;101376.0;;;21.18;59.37
32452;BME280;45528;52.102;5.242;2022-07-03T04:16:20;101371.0;;;21.24;59.35
32452;BME280;45528;52.102;5.242;2022-07-03T04:18:07;101370.0;;;21.22;59.11
32452;BME280;45528;52.102;5.242;2022-07-03T04:19:54;101364.0;;;21.25;58.93
32452;BME280;45528;52.102;5.242;2022-07-03T04:21:41;101366.0;;;21.34;59.02
32452;BME280;45528;52.102;5.242;2022-07-03T04:23:29;101359.0;;;21.36;59.29
32452;BME280;45528;52.102;5.242;2022-07-03T04:27:03;101357.0;;;21.4;59.41
32452;BME280;45528;52.102;5.242;2022-07-03T04:28:50;101363.0;;;21.45;59.35
32452;BME280;45528;52.102;5.242;2022-07-03T04:30:37;101366.0;;;21.46;59.48
32452;BME280;45528;52.102;5.242;2022-07-03T04:32:24;101371.0;;;21.49;59.33
32452;BME280;45528;52.102;5.242;2022-07-03T04:34:13;101375.0;;;21.51;59.23
32452;BME280;45528;52.102;5.242;2022-07-03T04:35:59;101374.0;;;21.56;59.1
32452;BME280;45528;52.102;5.242;2022-07-03T04:39:33;101385.0;;;21.61;59.41
32452;BME280;45528;52.102;5.242;2022-07-03T04:41:21;101383.0;;;21.74;58.72
32452;BME280;45528;52.102;5.242;2022-07-03T04:43:07;101387.0;;;21.85;58.73
32452;BME280;45528;52.102;5.242;2022-07-03T04:44:53;101382.0;;;21.94;58.2
32452;BME280;45528;52.102;5.242;2022-07-03T04:46:41;101387.0;;;21.98;58.42
32452;BME280;45528;52.102;5.242;2022-07-03T04:50:14;101386.0;;;22.07;58.04
32452;BME280;45528;52.102;5.242;2022-07-03T04:52:01;101381.0;;;22.14;57.95
32452;BME280;45528;52.102;5.242;2022-07-03T04:53:47;101378.0;;;22.19;57.95
32452;BME280;45528;52.102;5.242;2022-07-03T04:55:34;101380.0;;;22.27;57.57
32452;BME280;45528;52.102;5.242;2022-07-03T04:57:20;101384.0;;;22.31;57.54
32452;BME280;45528;52.102;5.242;2022-07-03T04:59:07;101385.0;;;22.4;57.45
32452;BME280;45528;52.102;5.242;2022-07-03T05:02:42;101391.0;;;22.55;57.05
32452;BME280;45528;52.102;5.242;2022-07-03T05:04:29;101392.0;;;22.66;56.72
32452;BME280;45528;52.102;5.242;2022-07-03T05:06:17;101393.0;;;22.8;56.15
32452;BME280;45528;52.102;5.242;2022-07-03T05:08:04;101394.0;;;22.91;55.43
32452;BME280;45528;52.102;5.242;2022-07-03T05:09:51;101390.0;;;23.06;55.61
32452;BME280;45528;52.102;5.242;2022-07-03T05:11:39;101391.0;;;23.17;54.76
32452;BME280;45528;52.102;5.242;2022-07-03T05:15:14;101399.0;;;23.29;54.77
32452;BME280;45528;52.102;5.242;2022-07-03T05:17:00;101405.0;;;23.35;54.35
32452;BME280;45528;52.102;5.242;2022-07-03T05:18:47;101398.0;;;23.31;54.54
32452;BME280;45528;52.102;5.242;2022-07-03T05:20:34;101399.0;;;23.43;54.22
32452;BME280;45528;52.102;5.242;2022-07-03T05:22:20;101395.0;;;23.47;54.47
32452;BME280;45528;52.102;5.242;2022-07-03T05:24:07;101396.0;;;23.42;54.14
32452;BME280;45528;52.102;5.242;2022-07-03T05:27:42;101401.0;;;23.42;54.43
32452;BME280;45528;52.102;5.242;2022-07-03T05:29:30;101407.0;;;23.51;54.26
32452;BME280;45528;52.102;5.242;2022-07-03T05:31:17;101406.0;;;23.6;54.36
32452;BME280;45528;52.102;5.242;2022-07-03T05:33:03;101408.0;;;23.63;54.34
32452;BME280;45528;52.102;5.242;2022-07-03T05:34:50;101405.0;;;23.71;54.78
32452;BME280;45528;52.102;5.242;2022-07-03T05:36:37;101403.0;;;23.81;53.93
32452;BME280;45528;52.102;5.242;2022-07-03T05:41:29;101403.0;;;24.03;53.92
32452;BME280;45528;52.102;5.242;2022-07-03T05:43:16;101401.0;;;24.17;53.33
32452;BME280;45528;52.102;5.242;2022-07-03T05:45:04;101402.0;;;24.24;52.86
32452;BME280;45528;52.102;5.242;2022-07-03T05:48:38;101412.0;;;24.21;52.8
32452;BME280;45528;52.102;5.242;2022-07-03T05:50:25;101413.0;;;24.32;52.85
32452;BME280;45528;52.102;5.242;2022-07-03T05:52:12;101416.0;;;24.24;52.53
32452;BME280;45528;52.102;5.242;2022-07-03T05:54:00;101415.0;;;24.33;52.96
32452;BME280;45528;52.102;5.242;2022-07-03T05:55:48;101421.0;;;24.29;52.86
32452;BME280;45528;52.102;5.242;2022-07-03T05:57:35;101416.0;;;24.3;52.78
32452;BME280;45528;52.102;5.242;2022-07-03T06:01:09;101418.0;;;24.41;52.95
32452;BME280;45528;52.102;5.242;2022-07-03T06:02:56;101415.0;;;24.53;52.69
32452;BME280;45528;52.102;5.242;2022-07-03T06:04:43;101418.0;;;24.72;52.38
32452;BME280;45528;52.102;5.242;2022-07-03T06:06:30;101410.0;;;24.54;52.45
32452;BME280;45528;52.102;5.242;2022-07-03T06:08:17;101407.0;;;24.91;51.54
32452;BME280;45528;52.102;5.242;2022-07-03T06:10:05;101410.0;;;24.95;51.55
32452;BME280;45528;52.102;5.242;2022-07-03T06:13:39;101413.0;;;25.14;51.27
32452;BME280;45528;52.102;5.242;2022-07-03T06:15:26;101415.0;;;25.1;51.49
32452;BME280;45528;52.102;5.242;2022-07-03T06:17:13;101418.0;;;25.06;51.06
32452;BME280;45528;52.102;5.242;2022-07-03T06:19:00;101417.0;;;25.32;50.88
32452;BME280;45528;52.102;5.242;2022-07-03T06:20:47;101415.0;;;25.29;50.84
32452;BME280;45528;52.102;5.242;2022-07-03T06:24:22;101421.0;;;25.56;50.12
32452;BME280;45528;52.102;5.242;2022-07-03T06:26:09;101417.0;;;25.74;49.61
32452;BME280;45528;52.102;5.242;2022-07-03T06:27:55;101418.0;;;25.81;49.59
32452;BME280;45528;52.102;5.242;2022-07-03T06:29:42;101422.0;;;25.94;49.52
32452;BME280;45528;52.102;5.242;2022-07-03T06:31:31;101424.0;;;26.03;49.54
32452;BME280;45528;52.102;5.242;2022-07-03T06:33:18;101427.0;;;25.99;49.28
32452;BME280;45528;52.102;5.242;2022-07-03T06:36:52;101430.0;;;25.95;49.33
32452;BME280;45528;52.102;5.242;2022-07-03T06:38:39;101428.0;;;26.14;49.15
32452;BME280;45528;52.102;5.242;2022-07-03T06:40:25;101430.0;;;26.09;48.03
32452;BME280;45528;52.102;5.242;2022-07-03T06:42:13;101437.0;;;26.1;48.04
32452;BME280;45528;52.102;5.242;2022-07-03T06:44:00;101437.0;;;26.27;47.95
32452;BME280;45528;52.102;5.242;2022-07-03T06:45:47;101433.0;;;26.1;48.27
32452;BME280;45528;52.102;5.242;2022-07-03T06:49:23;101435.0;;;26.17;48.88
32452;BME280;45528;52.102;5.242;2022-07-03T06:51:10;101431.0;;;26.17;48.91
32452;BME280;45528;52.102;5.242;2022-07-03T06:52:56;101435.0;;;26.08;49.59
32452;BME280;45528;52.102;5.242;2022-07-03T06:54:44;101442.0;;;25.93;49.27
32452;BME280;45528;52.102;5.242;2022-07-03T06:56:30;101436.0;;;26.24;48.73
32452;BME280;45528;52.102;5.242;2022-07-03T06:58:17;101432.0;;;26.03;48.94
32452;BME280;45528;52.102;5.242;2022-07-03T07:01:52;101430.0;;;26.15;48.45
32452;BME280;45528;52.102;5.242;2022-07-03T07:03:40;101438.0;;;26.36;48.2
32452;BME280;45528;52.102;5.242;2022-07-03T07:05:27;101434.0;;;26.34;48.71
32452;BME280;45528;52.102;5.242;2022-07-03T07:07:13;101438.0;;;26.46;48.63
32452;BME280;45528;52.102;5.242;2022-07-03T07:09:00;101434.0;;;26.52;48.34
32452;BME280;45528;52.102;5.242;2022-07-03T07:10:47;101426.0;;;25.98;48.42
32452;BME280;45528;52.102;5.242;2022-07-03T07:14:22;101425.0;;;26.43;47.89
32452;BME280;45528;52.102;5.242;2022-07-03T07:16:09;101427.0;;;26.46;48.19
32452;BME280;45528;52.102;5.242;2022-07-03T07:17:56;101424.0;;;26.47;48.22
32452;BME280;45528;52.102;5.242;2022-07-03T07:19:43;101425.0;;;26.19;47.34
32452;BME280;45528;52.102;5.242;2022-07-03T07:21:30;101432.0;;;26.3;47.62
32452;BME280;45528;52.102;5.242;2022-07-03T07:23:18;101433.0;;;26.36;47.18
32452;BME280;45528;52.102;5.242;2022-07-03T07:26:52;101433.0;;;26.33;46.98
32452;BME280;45528;52.102;5.242;2022-07-03T07:28:39;101430.0;;;26.45;46.78
32452;BME280;45528;52.102;5.242;2022-07-03T07:30:26;101433.0;;;26.63;46.64
32452;BME280;45528;52.102;5.242;2022-07-03T07:32:13;101430.0;;;26.44;46.8
32452;BME280;45528;52.102;5.242;2022-07-03T07:34:04;101439.0;;;26.75;46.76
32452;BME280;45528;52.102;5.242;2022-07-03T07:35:51;101441.0;;;26.79;46.27
32452;BME280;45528;52.102;5.242;2022-07-03T07:39:26;101447.0;;;26.62;46.81
32452;BME280;45528;52.102;5.242;2022-07-03T07:41:13;101448.0;;;26.61;46.85
32452;BME280;45528;52.102;5.242;2022-07-03T07:43:00;101446.0;;;26.73;47.07
32452;BME280;45528;52.102;5.242;2022-07-03T07:44:48;101450.0;;;26.75;46.8
32452;BME280;45528;52.102;5.242;2022-07-03T07:46:34;101449.0;;;26.61;47.25
32452;BME280;45528;52.102;5.242;2022-07-03T07:50:09;101455.0;;;27.0;46.83
32452;BME280;45528;52.102;5.242;2022-07-03T07:51:56;101453.0;;;27.01;46.44
32452;BME280;45528;52.102;5.242;2022-07-03T07:53:42;101460.0;;;27.07;47.08
32452;BME280;45528;52.102;5.242;2022-07-03T07:55:31;101460.0;;;27.01;46.44
32452;BME280;45528;52.102;5.242;2022-07-03T07:57:18;101465.0;;;27.14;46.26
32452;BME280;45528;52.102;5.242;2022-07-03T07:59:05;101465.0;;;27.25;45.79
32452;BME280;45528;52.102;5.242;2022-07-03T08:06:59;101465.0;;;27.3;45.75
32452;BME280;45528;52.102;5.242;2022-07-03T08:08:46;101468.0;;;27.42;46.54
32452;BME280;45528;52.102;5.242;2022-07-03T08:10:34;101472.0;;;27.36;46.19
32452;BME280;45528;52.102;5.242;2022-07-03T08:12:23;101471.0;;;27.58;45.91
32452;BME280;45528;52.102;5.242;2022-07-03T08:14:10;101478.0;;;27.55;45.52
32452;BME280;45528;52.102;5.242;2022-07-03T08:15:58;101477.0;;;27.52;43.91
32452;BME280;45528;52.102;5.242;2022-07-03T08:17:46;101481.0;;;27.78;43.7
32452;BME280;45528;52.102;5.242;2022-07-03T08:21:20;101474.0;;;27.54;43.73
32452;BME280;45528;52.102;5.242;2022-07-03T08:23:07;101478.0;;;27.56;43.86
32452;BME280;45528;52.102;5.242;2022-07-03T08:24:53;101474.0;;;27.32;43.18
32452;BME280;45528;52.102;5.242;2022-07-03T08:26:40;101476.0;;;27.55;43.29
32452;BME280;45528;52.102;5.242;2022-07-03T08:28:29;101475.0;;;27.37;43.12
32452;BME280;45528;52.102;5.242;2022-07-03T08:30:18;101477.0;;;27.48;43.58
32452;BME280;45528;52.102;5.242;2022-07-03T08:33:54;101480.0;;;27.59;43.66
32452;BME280;45528;52.102;5.242;2022-07-03T08:35:41;101476.0;;;27.47;42.96
32452;BME280;45528;52.102;5.242;2022-07-03T08:37:29;101475.0;;;27.45;43.38
32452;BME280;45528;52.102;5.242;2022-07-03T08:39:17;101483.0;;;27.72;42.91
32452;BME280;45528;52.102;5.242;2022-07-03T08:41:05;101483.0;;;27.8;42.73
32452;BME280;45528;52.102;5.242;2022-07-03T08:42:55;101477.0;;;27.76;43.19
32452;BME280;45528;52.102;5.242;2022-07-03T08:46:32;101478.0;;;27.73;44.28
32452;BME280;45528;52.102;5.242;2022-07-03T08:48:20;101478.0;;;27.63;43.62
32452;BME280;45528;52.102;5.242;2022-07-03T08:50:10;101481.0;;;27.56;43.82
32452;BME280;45528;52.102;5.242;2022-07-03T08:51:59;101475.0;;;27.6;43.89
32452;BME280;45528;52.102;5.242;2022-07-03T08:53:47;101472.0;;;27.68;43.95
32452;BME280;45528;52.102;5.242;2022-07-03T08:55:34;101470.0;;;27.64;43.7
32452;BME280;45528;52.102;5.242;2022-07-03T08:59:12;101465.0;;;27.61;44.26
32452;BME280;45528;52.102;5.242;2022-07-03T09:00:59;101465.0;;;27.83;43.7
32452;BME280;45528;52.102;5.242;2022-07-03T09:02:47;101466.0;;;27.94;44.19
32452;BME280;45528;52.102;5.242;2022-07-03T09:04:35;101462.0;;;27.66;43.41
32452;BME280;45528;52.102;5.242;2022-07-03T09:06:23;101461.0;;;28.04;43.25
32452;BME280;45528;52.102;5.242;2022-07-03T09:08:10;101469.0;;;28.1;43.31
32452;BME280;45528;52.102;5.242;2022-07-03T09:11:46;101467.0;;;28.27;43.43
32452;BME280;45528;52.102;5.242;2022-07-03T09:13:34;101466.0;;;28.25;43.52
32452;BME280;45528;52.102;5.242;2022-07-03T09:15:21;101468.0;;;27.94;43.03
32452;BME280;45528;52.102;5.242;2022-07-03T09:17:09;101467.0;;;27.95;43.48
32452;BME280;45528;52.102;5.242;2022-07-03T09:18:57;101467.0;;;27.71;43.63
32452;BME280;45528;52.102;5.242;2022-07-03T09:20:44;101470.0;;;27.76;43.56
32452;BME280;45528;52.102;5.242;2022-07-03T09:24:21;101471.0;;;27.69;43.54
32452;BME280;45528;52.102;5.242;2022-07-03T09:26:12;101469.0;;;27.64;44.18
32452;BME280;45528;52.102;5.242;2022-07-03T09:28:00;101467.0;;;27.56;44.75
32452;BME280;45528;52.102;5.242;2022-07-03T09:29:56;101466.0;;;27.52;44.4
32452;BME280;45528;52.102;5.242;2022-07-03T09:31:53;101466.0;;;27.51;44.76
32452;BME280;45528;52.102;5.242;2022-07-03T09:33:53;101463.0;;;27.55;44.65
32452;BME280;45528;52.102;5.242;2022-07-03T09:35:41;101460.0;;;27.79;45.13
32452;BME280;45528;52.102;5.242;2022-07-03T09:37:31;101465.0;;;27.68;43.7
32452;BME280;45528;52.102;5.242;2022-07-03T09:39:20;101470.0;;;27.91;43.43
32452;BME280;45528;52.102;5.242;2022-07-03T09:42:58;101472.0;;;27.99;43.18
32452;BME280;45528;52.102;5.242;2022-07-03T09:44:46;101466.0;;;28.08;43.71
32452;BME280;45528;52.102;5.242;2022-07-03T09:46:33;101463.0;;;28.02;43.25
32452;BME280;45528;52.102;5.242;2022-07-03T09:48:21;101463.0;;;28.15;42.39
32452;BME280;45528;52.102;5.242;2022-07-03T09:50:14;101461.0;;;27.97;41.16
32452;BME280;45528;52.102;5.242;2022-07-03T09:52:01;101462.0;;;28.1;41.84
32452;BME280;45528;52.102;5.242;2022-07-03T09:55:39;101465.0;;;28.41;41.16
32452;BME280;45528;52.102;5.242;2022-07-03T09:57:27;101466.0;;;28.35;41.52
32452;BME280;45528;52.102;5.242;2022-07-03T09:59:15;101466.0;;;28.41;41.73
32452;BME280;45528;52.102;5.242;2022-07-03T10:01:15;101461.0;;;28.62;41.5
32452;BME280;45528;52.102;5.242;2022-07-03T10:03:06;101466.0;;;28.75;41.19
32452;BME280;45528;52.102;5.242;2022-07-03T10:05:10;101463.0;;;28.86;41.41
32452;BME280;45528;52.102;5.242;2022-07-03T10:06:59;101463.0;;;28.89;41.1
32452;BME280;45528;52.102;5.242;2022-07-03T10:08:47;101457.0;;;29.13;40.68
32452;BME280;45528;52.102;5.242;2022-07-03T10:12:23;101456.0;;;29.31;41.03
32452;BME280;45528;52.102;5.242;2022-07-03T10:14:13;101459.0;;;29.27;40.11
32452;BME280;45528;52.102;5.242;2022-07-03T10:16:01;101461.0;;;29.26;40.1
32452;BME280;45528;52.102;5.242;2022-07-03T10:17:50;101465.0;;;29.03;39.76
32452;BME280;45528;52.102;5.242;2022-07-03T10:19:39;101462.0;;;28.78;39.82
32452;BME280;45528;52.102;5.242;2022-07-03T10:21:26;101467.0;;;28.9;39.9
32452;BME280;45528;52.102;5.242;2022-07-03T10:25:02;101470.0;;;28.66;41.21
32452;BME280;45528;52.102;5.242;2022-07-03T10:26:50;101468.0;;;28.63;41.29
32452;BME280;45528;52.102;5.242;2022-07-03T10:28:38;101469.0;;;28.51;41.44
32452;BME280;45528;52.102;5.242;2022-07-03T10:30:27;101469.0;;;28.35;41.25
32452;BME280;45528;52.102;5.242;2022-07-03T10:32:15;101471.0;;;28.28;40.67
32452;BME280;45528;52.102;5.242;2022-07-03T10:34:04;101469.0;;;28.2;41.66
32452;BME280;45528;52.102;5.242;2022-07-03T10:35:52;101471.0;;;28.0;41.72
32452;BME280;45528;52.102;5.242;2022-07-03T10:39:54;101477.0;;;27.92;41.71
32452;BME280;45528;52.102;5.242;2022-07-03T10:45:06;101480.0;;;28.06;42.06
32452;BME280;45528;52.102;5.242;2022-07-03T10:46:58;101480.0;;;28.09;40.85
32452;BME280;45528;52.102;5.242;2022-07-03T10:48:56;101481.0;;;28.12;41.27
32452;BME280;45528;52.102;5.242;2022-07-03T10:51:11;101491.0;;;28.12;41.58
32452;BME280;45528;52.102;5.242;2022-07-03T10:53:21;101494.0;;;28.18;41.63
32452;BME280;45528;52.102;5.242;2022-07-03T10:55:10;101500.0;;;28.05;41.83
32452;BME280;45528;52.102;5.242;2022-07-03T10:57:15;101520.0;;;27.91;42.64
32452;BME280;45528;52.102;5.242;2022-07-03T10:59:15;101517.0;;;27.6;43.97
32452;BME280;45528;52.102;5.242;2022-07-03T11:01:02;101519.0;;;27.56;44.9
32452;BME280;45528;52.102;5.242;2022-07-03T11:05:06;101520.0;;;27.59;44.84
32452;BME280;45528;52.102;5.242;2022-07-03T11:07:10;101526.0;;;27.3;45.79
32452;BME280;45528;52.102;5.242;2022-07-03T11:09:01;101521.0;;;27.09;46.75
32452;BME280;45528;52.102;5.242;2022-07-03T11:11:54;101517.0;;;27.2;47.39
32452;BME280;45528;52.102;5.242;2022-07-03T11:14:17;101523.0;;;26.76;48.78
32452;BME280;45528;52.102;5.242;2022-07-03T11:16:21;101521.0;;;26.74;49.36
32452;BME280;45528;52.102;5.242;2022-07-03T11:18:13;101523.0;;;26.69;49.22
32452;BME280;45528;52.102;5.242;2022-07-03T11:20:58;101522.0;;;26.48;49.09